YHZ weather

Halifax / Stanfield International Airport
Halifax, Nova Scotia, Canada

Public forecast

Using degrees Celsius for public forecast. Weather courtesy of forecast.io.

METAR (pilot weather report)

Retrieved 2019/04/24 00:00 UTC (24 minutes ago):

CYHZ 240000Z 13010KT 1/4SM R23/3000V4500FT/U R14/3500FT/N FG VV002 07/07 A2980 RMK FG8 SLP097

TAF (pilot weather forecast)

Forecast is more than 12 hours old.

Retrieved 2019/04/23 00:42 UTC (24 hours ago):

TAF CYHZ 232340Z 2400/2424 12008KT 1/4SM FG VV001 TEMPO 2400/2410 1/2SM -DZ FG VV002 BECMG 2404/2406 18005KT FM241000 27005KT 1SM BR OVC002 FM241200 30008KT 3SM BR OVC004 FM241500 28008KT P6SM -RA SCT008 OVC012 FM242000 19012KT 4SM -RA BR BKN007 OVC012 FM242300 14008KT 2SM -RA BR OVC003 RMK NXT FCST BY 240300Z